createdAt,value
2022-09-03T00:01:36.990Z,81.70
2022-09-03T00:04:13.164Z,81.70
2022-09-03T00:07:00.539Z,81.70
2022-09-03T00:09:41.841Z,81.70
2022-09-03T00:12:27.181Z,81.80
2022-09-03T00:15:04.014Z,81.80
2022-09-03T00:17:57.258Z,81.90
2022-09-03T00:20:41.932Z,82.10
2022-09-03T00:23:36.570Z,82.10
2022-09-03T00:26:19.991Z,82.20
2022-09-03T00:30:10.443Z,82.20
2022-09-03T00:32:37.615Z,82.20
2022-09-03T00:35:41.095Z,82.20
2022-09-03T00:38:16.830Z,82.20
2022-09-03T00:41:35.228Z,82.20
2022-09-03T00:44:50.006Z,82.40
2022-09-03T00:50:14.839Z,82.30
2022-09-03T00:52:57.491Z,82.30
2022-09-03T01:00:30.869Z,82.50
2022-09-03T01:03:13.555Z,82.50
2022-09-03T01:06:47.048Z,82.50
2022-09-03T01:10:17.957Z,82.50
2022-09-03T01:13:34.948Z,82.50
2022-09-03T01:16:29.124Z,82.50
2022-09-03T01:19:45.905Z,82.40
2022-09-03T01:22:54.850Z,82.50
2022-09-03T01:25:56.458Z,82.50
2022-09-03T01:29:20.693Z,82.50
2022-09-03T01:32:43.174Z,83.00
2022-09-03T01:35:39.970Z,82.40
2022-09-03T01:38:28.949Z,82.30
2022-09-03T01:41:34.133Z,82.30
2022-09-03T01:44:06.967Z,82.40
2022-09-03T01:46:56.186Z,82.30
2022-09-03T01:49:35.362Z,82.20
2022-09-03T01:52:10.301Z,82.30
2022-09-03T01:55:05.636Z,82.80
2022-09-03T01:58:09.397Z,82.40
2022-09-03T02:03:47.993Z,82.30
2022-09-03T02:06:21.100Z,82.80
2022-09-03T02:08:57.242Z,82.40
2022-09-03T02:11:31.825Z,82.40
2022-09-03T02:14:21.824Z,82.40
2022-09-03T02:17:19.591Z,82.50
2022-09-03T02:23:03.011Z,82.50
2022-09-03T02:25:37.209Z,82.60
2022-09-03T02:31:30.693Z,83.30
2022-09-03T02:35:04.588Z,83.00
2022-09-03T02:37:58.670Z,83.00
2022-09-03T02:40:30.394Z,83.00
2022-09-03T02:50:05.047Z,83.30
2022-09-03T02:53:27.115Z,83.30
2022-09-03T02:56:04.677Z,83.30
2022-09-03T02:58:38.028Z,83.30
2022-09-03T03:04:25.434Z,83.40
2022-09-03T03:06:57.279Z,83.30
2022-09-03T03:09:24.734Z,83.30
2022-09-03T03:12:01.100Z,83.30
2022-09-03T03:14:30.605Z,83.40
2022-09-03T03:16:57.712Z,83.30
2022-09-03T03:19:25.101Z,83.30
2022-09-03T03:21:57.478Z,83.30
2022-09-03T03:24:26.015Z,83.30
2022-09-03T03:26:59.572Z,83.30
2022-09-03T03:29:29.270Z,83.40
2022-09-03T03:32:06.911Z,83.30
2022-09-03T03:34:36.854Z,83.40
2022-09-03T03:37:14.676Z,83.40
2022-09-03T03:39:44.233Z,83.50
2022-09-03T03:42:21.747Z,83.50
2022-09-03T03:45:17.256Z,83.50
2022-09-03T03:47:44.666Z,83.60
2022-09-03T03:50:19.131Z,83.50
2022-09-03T03:52:55.228Z,83.50
2022-09-03T03:55:27.523Z,83.50
2022-09-03T03:58:03.086Z,83.60
2022-09-03T04:00:36.885Z,83.70
2022-09-03T04:03:04.820Z,83.70
2022-09-03T04:05:40.778Z,83.60
2022-09-03T04:08:15.044Z,83.60
2022-09-03T04:10:49.816Z,83.50
2022-09-03T04:13:19.556Z,83.60
2022-09-03T04:15:51.609Z,83.60
2022-09-03T04:18:25.892Z,83.70
2022-09-03T04:20:53.161Z,83.70
2022-09-03T04:23:31.245Z,83.70
2022-09-03T04:26:02.640Z,83.70
2022-09-03T04:28:36.672Z,83.70
2022-09-03T04:31:12.518Z,83.80
2022-09-03T04:33:43.063Z,83.80
2022-09-03T04:36:16.921Z,83.80
2022-09-03T04:38:47.407Z,83.80
2022-09-03T04:41:18.118Z,83.90
2022-09-03T04:43:51.550Z,83.90
2022-09-03T04:46:40.999Z,83.90
2022-09-03T04:49:17.227Z,83.90
2022-09-03T04:51:44.423Z,83.80
2022-09-03T04:54:17.698Z,83.90
2022-09-03T04:56:45.677Z,84.00
2022-09-03T04:59:13.804Z,84.10
2022-09-03T05:01:47.617Z,84.10
2022-09-03T05:04:14.722Z,84.10
2022-09-03T05:06:43.657Z,84.20
2022-09-03T05:09:10.816Z,84.30
2022-09-03T05:11:38.088Z,84.30
2022-09-03T05:14:12.122Z,84.30
2022-09-03T05:16:53.065Z,84.40
2022-09-03T05:19:24.527Z,84.50
2022-09-03T05:21:53.595Z,84.60
2022-09-03T05:24:25.199Z,84.60
2022-09-03T05:26:52.685Z,84.70
2022-09-03T05:29:22.703Z,84.70
2022-09-03T05:31:54.806Z,84.80
2022-09-03T05:34:23.475Z,84.80
2022-09-03T05:36:53.366Z,84.90
2022-09-03T05:39:20.689Z,84.90
2022-09-03T05:41:50.742Z,85.00
2022-09-03T05:44:22.832Z,85.00
2022-09-03T05:46:53.243Z,85.10
2022-09-03T05:49:20.379Z,85.10
2022-09-03T05:51:51.118Z,85.20
2022-09-03T05:54:23.190Z,85.20
2022-09-03T05:56:51.929Z,85.10
2022-09-03T05:59:21.541Z,85.20
2022-09-03T06:01:54.631Z,85.20
2022-09-03T06:04:26.631Z,85.20
2022-09-03T06:06:56.764Z,85.30
2022-09-03T06:09:24.282Z,85.30
2022-09-03T06:11:53.503Z,85.30
2022-09-03T06:14:24.055Z,85.40
2022-09-03T06:17:02.309Z,85.40
2022-09-03T06:19:42.203Z,85.40
2022-09-03T06:22:12.799Z,85.40
2022-09-03T06:24:44.046Z,85.40
2022-09-03T06:30:32.053Z,85.40
2022-09-03T06:32:59.502Z,85.30
2022-09-03T06:35:26.601Z,85.20
2022-09-03T06:38:00.712Z,85.30
2022-09-03T06:40:27.888Z,85.20
2022-09-03T06:43:03.859Z,85.20
2022-09-03T06:45:57.771Z,85.20
2022-09-03T06:48:28.063Z,85.20
2022-09-03T06:51:06.889Z,85.10
2022-09-03T06:53:38.491Z,85.00
2022-09-03T06:56:10.318Z,84.90
2022-09-03T06:58:45.244Z,84.80
2022-09-03T07:01:26.540Z,84.70
2022-09-03T07:03:58.715Z,84.60
2022-09-03T07:06:30.996Z,84.50
2022-09-03T07:09:02.132Z,84.40
2022-09-03T07:11:33.556Z,84.20
2022-09-03T07:14:03.453Z,84.20
2022-09-03T07:16:37.415Z,84.00
2022-09-03T07:19:17.403Z,83.90
2022-09-03T07:21:50.052Z,83.70
2022-09-03T07:24:23.680Z,83.50
2022-09-03T07:26:58.315Z,83.40
2022-09-03T07:29:32.999Z,83.20
2022-09-03T07:32:13.035Z,83.00
2022-09-03T07:42:21.394Z,82.30
2022-09-03T07:44:56.045Z,82.10
2022-09-03T07:47:36.515Z,81.90
2022-09-03T07:50:41.495Z,81.80
2022-09-03T07:53:25.372Z,81.40
2022-09-03T07:55:52.169Z,81.30
2022-09-03T07:58:27.151Z,81.10
2022-09-03T08:01:20.717Z,81.00
2022-09-03T08:11:23.776Z,80.30
2022-09-03T08:22:14.772Z,79.60
2022-09-03T08:28:37.223Z,79.10
2022-09-03T08:31:20.905Z,78.80
2022-09-03T08:36:43.435Z,78.50
2022-09-03T08:39:11.359Z,78.30
2022-09-03T08:41:55.258Z,78.10
2022-09-03T11:55:54.246Z,67.10
2022-09-03T11:58:30.737Z,66.90
2022-09-03T12:00:59.282Z,66.80
2022-09-03T12:03:52.252Z,66.60
2022-09-03T12:06:41.739Z,66.30
2022-09-03T12:09:30.044Z,66.40
2022-09-03T12:12:20.346Z,66.30
2022-09-03T12:14:59.570Z,66.10
2022-09-03T12:18:21.081Z,66.00
2022-09-03T12:21:07.798Z,65.80
2022-09-03T12:23:45.944Z,65.90
2022-09-03T12:26:25.037Z,65.70
2022-09-03T12:29:27.885Z,65.70
2022-09-03T12:32:06.557Z,65.60
2022-09-03T12:34:35.045Z,65.60
2022-09-03T12:37:15.097Z,65.60
2022-09-03T12:40:09.249Z,65.40
2022-09-03T12:42:36.851Z,65.30
2022-09-03T12:47:59.582Z,65.10
2022-09-03T12:50:27.169Z,65.10
2022-09-03T12:53:00.717Z,65.10
2022-09-03T12:55:40.590Z,65.10
2022-09-03T12:58:23.835Z,64.90
2022-09-03T13:00:52.840Z,64.60
2022-09-03T13:03:24.881Z,64.50
2022-09-03T13:06:19.751Z,64.50
2022-09-03T13:08:49.814Z,64.30
2022-09-03T13:11:29.155Z,64.30
2022-09-03T13:14:07.873Z,64.20
2022-09-03T13:17:00.749Z,64.20
2022-09-03T13:19:42.585Z,64.00
2022-09-03T13:22:47.569Z,64.00
2022-09-03T13:25:44.145Z,63.90
2022-09-03T13:29:12.535Z,63.90
2022-09-03T13:47:20.693Z,63.30
2022-09-03T13:58:22.086Z,63.30
2022-09-03T14:06:04.229Z,63.40
2022-09-03T14:10:16.310Z,63.40
2022-09-03T14:12:55.363Z,63.50
2022-09-03T14:15:46.935Z,63.60
2022-09-03T16:45:36.380Z,63.70
2022-09-03T16:49:01.622Z,63.60
2022-09-03T17:41:34.395Z,65.20
2022-09-03T17:44:18.859Z,65.30
2022-09-03T17:47:27.691Z,65.40
2022-09-03T17:50:08.562Z,65.60
